Time;durP1;ratioP1;P1;durP2;ratioP2;P2;SDS_P1;SDS_P2;PMS_P1;PMS_P2;Temp;Humidity;BMP_temperature;BMP_pressure;BME280_temperature;BME280_humidity;BME280_pressure;Samples;Min_cycle;Max_cycle;Signal;HPM_P1;HPM_P2
2023/06/04 00:03:48;;;;;;;;;;;;;;;12.79;69.95;102211.09;10279577;28;19918;-72
2023/06/04 00:08:48;;;;;;;;;;;;;;;12.78;72.88;102213.97;10296766;28;19918;-72
2023/06/04 00:13:49;;;;;;;;;;;;;;;12.77;72.92;102215.84;10295495;28;20334;-72
2023/06/04 00:18:49;;;;;;;;;;;;;;;12.73;77.29;102211.81;10296693;28;19968;-72
2023/06/04 00:23:49;;;;;;;;;;;;;;;12.71;75.00;102213.00;10295035;28;19922;-72
2023/06/04 00:28:50;;;;;;;;;;;;;;;12.70;75.41;102205.84;10279285;28;19918;-72
2023/06/04 00:33:50;;;;;;;;;;;;;;;12.66;78.86;102216.25;10296351;28;20040;-71
2023/06/04 00:38:50;;;;;;;;;;;;;;;12.67;75.56;102217.97;10294611;28;19918;-72
2023/06/04 00:43:56;;;;;;;;;;;;;;;12.60;74.31;102216.13;10301160;28;19924;-72
2023/06/04 00:48:57;;;;;;;;;;;;;;;12.52;74.67;102211.59;10294231;28;19921;-72
2023/06/04 00:53:57;;;;;;;;;;;;;;;12.43;75.76;102210.78;10278060;28;19918;-72
2023/06/04 00:58:57;;;;;;;;;;;;;;;12.43;74.12;102210.78;10278089;28;20000;-72
2023/06/04 01:03:57;;;;;;;;;;;;;;;12.33;72.81;102219.16;10278217;28;19941;-72
2023/06/04 01:08:58;;;;;;;;;;;;;;;12.24;73.34;102225.63;10276740;28;19914;-72
2023/06/04 01:13:58;;;;;;;;;;;;;;;12.17;72.58;102226.53;10277282;28;19921;-72
2023/06/04 01:18:59;;;;;;;;;;;;;;;12.13;74.13;102217.88;10293027;28;19918;-72
2023/06/04 01:24:00;;;;;;;;;;;;;;;12.12;76.11;102224.31;10293441;28;20005;-72
2023/06/04 01:29:00;;;;;;;;;;;;;;;12.06;74.51;102230.44;10276800;28;19993;-71
2023/06/04 01:34:01;;;;;;;;;;;;;;;11.94;72.66;102221.00;10293026;28;20013;-72
2023/06/04 01:39:02;;;;;;;;;;;;;;;11.82;71.58;102224.03;10294097;28;19914;-72
2023/06/04 01:44:02;;;;;;;;;;;;;;;11.79;71.70;102213.53;10296356;28;19914;-72
2023/06/04 01:49:02;;;;;;;;;;;;;;;11.72;71.69;102217.97;10297027;28;19961;-72
2023/06/04 01:54:03;;;;;;;;;;;;;;;11.63;71.09;102210.84;10299216;28;19921;-72
2023/06/04 01:59:04;;;;;;;;;;;;;;;11.59;71.57;102214.94;10294323;28;19933;-72
2023/06/04 02:04:04;;;;;;;;;;;;;;;11.53;72.99;102213.75;10293324;28;20288;-72
2023/06/04 02:09:04;;;;;;;;;;;;;;;11.50;72.52;102214.09;10293148;28;20020;-72
2023/06/04 02:14:04;;;;;;;;;;;;;;;11.45;74.74;102212.91;10292499;28;19965;-72
2023/06/04 02:19:05;;;;;;;;;;;;;;;11.39;72.03;102215.31;10292250;28;19929;-71
2023/06/04 02:24:05;;;;;;;;;;;;;;;11.32;74.86;102208.84;10290437;28;19922;-72
2023/06/04 02:29:05;;;;;;;;;;;;;;;11.36;74.60;102222.94;10292023;28;19945;-72
2023/06/04 02:34:05;;;;;;;;;;;;;;;11.31;76.17;102219.88;10291649;28;19922;-72
2023/06/04 02:39:06;;;;;;;;;;;;;;;11.30;74.63;102219.03;10291193;28;19914;-72
2023/06/04 02:44:06;;;;;;;;;;;;;;;11.15;72.82;102218.84;10277754;28;19921;-72
2023/06/04 02:49:06;;;;;;;;;;;;;;;11.13;73.07;102222.75;10315454;28;19918;-72
2023/06/04 02:54:07;;;;;;;;;;;;;;;11.14;73.84;102213.63;10281861;28;19922;-72
2023/06/04 02:59:09;;;;;;;;;;;;;;;11.09;75.11;102221.41;10299799;28;19957;-72
2023/06/04 03:04:09;;;;;;;;;;;;;;;11.05;74.45;102220.91;10288380;28;19981;-73
2023/06/04 03:09:10;;;;;;;;;;;;;;;11.09;75.97;102216.81;10284149;28;19980;-72
2023/06/04 03:14:10;;;;;;;;;;;;;;;11.06;74.54;102214.44;10300106;28;19921;-72
2023/06/04 03:19:11;;;;;;;;;;;;;;;11.06;76.60;102213.59;10281756;28;19914;-71
2023/06/04 03:24:11;;;;;;;;;;;;;;;11.07;75.27;102216.16;10280911;28;19924;-72
2023/06/04 03:29:11;;;;;;;;;;;;;;;11.01;73.27;102214.13;10298916;28;19914;-71
2023/06/04 03:34:12;;;;;;;;;;;;;;;11.00;72.81;102219.69;10298136;28;20022;-71
2023/06/04 03:39:12;;;;;;;;;;;;;;;11.01;75.27;102216.84;10296779;28;19925;-72
2023/06/04 03:44:13;;;;;;;;;;;;;;;10.94;73.39;102215.78;10297253;28;19953;-71
2023/06/04 03:49:14;;;;;;;;;;;;;;;10.94;74.24;102219.38;10298721;28;20016;-72
2023/06/04 03:54:16;;;;;;;;;;;;;;;10.99;73.67;102226.13;10279715;28;20012;-72
2023/06/04 03:59:16;;;;;;;;;;;;;;;11.01;72.17;102224.09;10311744;28;19925;-72
2023/06/04 04:04:17;;;;;;;;;;;;;;;11.07;74.01;102221.59;10296718;28;19940;-72
2023/06/04 04:09:17;;;;;;;;;;;;;;;11.11;73.04;102227.50;10311518;28;19940;-72
2023/06/04 04:14:17;;;;;;;;;;;;;;;11.15;72.31;102228.84;10296455;28;19918;-71
2023/06/04 04:19:18;;;;;;;;;;;;;;;11.25;74.19;102220.56;10285272;28;19979;-72
2023/06/04 04:24:22;;;;;;;;;;;;;;;11.35;74.71;102232.91;10284474;28;19994;-72
2023/06/04 04:29:24;;;;;;;;;;;;;;;11.47;72.28;102222.56;10296828;28;19918;-72
2023/06/04 04:34:25;;;;;;;;;;;;;;;11.51;72.17;102223.06;10295066;28;20113;-72
2023/06/04 04:39:25;;;;;;;;;;;;;;;11.68;73.95;102230.19;10296877;28;20012;-72
2023/06/04 04:49:36;;;;;;;;;;;;;;;13.30;71.30;102217.84;10441700;23;19926;-72
2023/06/04 04:54:36;;;;;;;;;;;;;;;13.88;70.47;102211.69;10292898;28;19945;-71
2023/06/04 04:59:36;;;;;;;;;;;;;;;14.36;68.25;102209.38;10276926;28;19918;-71
2023/06/04 05:04:37;;;;;;;;;;;;;;;14.88;67.59;102212.94;10291890;28;20302;-72
2023/06/04 05:09:37;;;;;;;;;;;;;;;15.16;65.90;102215.75;10292469;28;19918;-71
2023/06/04 05:14:37;;;;;;;;;;;;;;;15.45;65.30;102224.81;10292976;28;20000;-71
2023/06/04 05:19:38;;;;;;;;;;;;;;;15.78;64.47;102223.19;10292096;28;20020;-71
2023/06/04 05:24:38;;;;;;;;;;;;;;;16.15;62.82;102220.28;10275567;28;19918;-71
2023/06/04 05:29:38;;;;;;;;;;;;;;;16.31;60.45;102230.03;10274526;28;20339;-71
2023/06/04 05:34:39;;;;;;;;;;;;;;;16.56;59.87;102233.03;10291325;28;20048;-71
2023/06/04 05:39:39;;;;;;;;;;;;;;;16.90;59.51;102234.88;10275418;28;20000;-71
2023/06/04 05:44:40;;;;;;;;;;;;;;;17.27;58.47;102233.47;10291107;28;19918;-71
2023/06/04 05:49:40;;;;;;;;;;;;;;;17.65;57.06;102236.41;10232056;28;1277237;-71
2023/06/04 05:54:40;;;;;;;;;;;;;;;18.02;56.27;102239.53;10294160;28;20313;-71
2023/06/04 05:59:41;;;;;;;;;;;;;;;18.29;56.06;102237.56;10296526;28;20361;-71
2023/06/04 06:04:41;;;;;;;;;;;;;;;18.56;53.35;102242.94;10274833;28;19937;-71
2023/06/04 06:09:41;;;;;;;;;;;;;;;18.67;52.12;102245.00;10290817;28;20358;-71
2023/06/04 06:14:41;;;;;;;;;;;;;;;18.75;50.75;102244.75;10291769;28;19922;-71
2023/06/04 06:19:42;;;;;;;;;;;;;;;19.16;49.36;102242.63;10290975;28;20432;-71
2023/06/04 06:24:42;;;;;;;;;;;;;;;19.54;49.16;102242.53;10292094;28;20341;-71
2023/06/04 06:29:42;;;;;;;;;;;;;;;19.90;46.43;102246.44;10291631;28;19914;-71
2023/06/04 06:34:43;;;;;;;;;;;;;;;20.14;47.75;102244.72;10274695;28;19918;-71
2023/06/04 06:39:43;;;;;;;;;;;;;;;20.40;42.43;102247.16;10289569;28;20257;-71
2023/06/04 06:44:44;;;;;;;;;;;;;;;20.15;42.62;102244.50;10291179;28;19925;-71
2023/06/04 06:49:44;;;;;;;;;;;;;;;20.66;45.01;102245.19;10273713;28;19922;-71
2023/06/04 06:54:45;;;;;;;;;;;;;;;21.33;44.47;102243.13;10294591;28;19950;-71
2023/06/04 06:59:45;;;;;;;;;;;;;;;21.84;42.18;102246.31;10289698;28;19958;-71
2023/06/04 07:04:45;;;;;;;;;;;;;;;21.85;41.51;102250.72;10275027;28;20001;-71
2023/06/04 07:09:45;;;;;;;;;;;;;;;21.69;39.26;102254.22;10290375;28;20192;-71
2023/06/04 07:14:46;;;;;;;;;;;;;;;22.16;39.69;102254.22;10290661;28;19922;-71
2023/06/04 07:19:46;;;;;;;;;;;;;;;22.46;38.23;102260.41;10290043;28;19918;-71
2023/06/04 07:24:46;;;;;;;;;;;;;;;23.03;38.74;102256.84;10290566;28;20254;-71
2023/06/04 07:29:46;;;;;;;;;;;;;;;23.19;38.03;102257.97;10274944;28;20016;-71
2023/06/04 07:34:47;;;;;;;;;;;;;;;23.22;37.25;102254.69;10279610;28;20302;-71
2023/06/04 07:39:47;;;;;;;;;;;;;;;23.76;40.28;102251.47;10295317;28;19918;-72
2023/06/04 07:44:47;;;;;;;;;;;;;;;24.21;38.52;102250.44;10296813;28;20020;-72
2023/06/04 07:49:47;;;;;;;;;;;;;;;24.43;39.00;102245.78;10297521;28;20318;-74
2023/06/04 07:54:48;;;;;;;;;;;;;;;24.54;36.83;102247.59;10296690;28;20328;-72
2023/06/04 07:59:48;;;;;;;;;;;;;;;24.72;37.23;102251.09;10296170;28;19918;-72
2023/06/04 08:04:48;;;;;;;;;;;;;;;25.24;37.73;102245.84;10295460;28;20008;-72
2023/06/04 08:09:49;;;;;;;;;;;;;;;24.88;39.19;102243.78;10279041;28;19918;-72
2023/06/04 08:14:56;;;;;;;;;;;;;;;26.02;39.41;102253.66;10295602;28;19918;-72
2023/06/04 08:19:56;;;;;;;;;;;;;;;25.92;36.38;102250.84;10296745;28;20020;-72
2023/06/04 08:24:57;;;;;;;;;;;;;;;24.94;36.79;102253.84;10279980;28;20004;-72
2023/06/04 08:29:57;;;;;;;;;;;;;;;25.68;37.58;102251.19;10281577;28;20004;-72
2023/06/04 08:34:57;;;;;;;;;;;;;;;25.79;35.24;102257.66;10294508;28;20349;-72
2023/06/04 08:39:57;;;;;;;;;;;;;;;25.46;34.20;102259.63;10277955;28;19953;-72
2023/06/04 08:44:58;;;;;;;;;;;;;;;26.10;33.80;102261.50;10276065;28;19914;-72
2023/06/04 08:50:01;;;;;;;;;;;;;;;25.97;34.28;102259.16;10296711;28;20008;-72
2023/06/04 08:55:02;;;;;;;;;;;;;;;25.47;34.67;102269.63;10278038;28;20398;-73
2023/06/04 09:00:04;;;;;;;;;;;;;;;25.75;34.79;102274.00;10295495;28;19933;-72
2023/06/04 09:05:09;;;;;;;;;;;;;;;26.48;35.12;102278.91;10295593;28;19914;-72
2023/06/04 09:10:09;;;;;;;;;;;;;;;26.61;34.58;102275.66;10278114;28;19918;-72
2023/06/04 09:15:10;;;;;;;;;;;;;;;26.82;34.73;102282.09;10278915;28;19918;-72
2023/06/04 09:20:20;;;;;;;;;;;;;;;26.77;34.12;102279.31;10293410;28;20353;-72
2023/06/04 09:25:21;;;;;;;;;;;;;;;26.80;33.12;102283.47;10292626;28;19968;-72
2023/06/04 09:30:22;;;;;;;;;;;;;;;26.68;35.08;102278.16;10292990;28;19922;-71
2023/06/04 09:35:22;;;;;;;;;;;;;;;27.04;33.10;102286.59;10291697;28;19929;-70
2023/06/04 09:40:23;;;;;;;;;;;;;;;27.22;34.88;102296.38;10275545;28;19918;-72
2023/06/04 09:45:27;;;;;;;;;;;;;;;27.49;35.14;102293.34;10292810;28;20302;-72
2023/06/04 09:50:30;;;;;;;;;;;;;;;27.80;34.71;102286.69;10274484;28;20016;-73
2023/06/04 09:55:30;;;;;;;;;;;;;;;27.01;33.14;102279.63;10290789;28;19926;-72
2023/06/04 10:00:30;;;;;;;;;;;;;;;26.33;32.90;102276.03;10238072;28;20364;-72
2023/06/04 10:05:31;;;;;;;;;;;;;;;26.45;32.92;102271.06;10274237;28;19918;-73
2023/06/04 10:10:33;;;;;;;;;;;;;;;27.04;32.37;102287.41;10291744;28;20029;-71
2023/06/04 10:15:34;;;;;;;;;;;;;;;26.94;33.29;102281.84;10273782;28;19953;-71
2023/06/04 10:20:34;;;;;;;;;;;;;;;27.23;34.96;102268.28;10291635;28;19957;-73
2023/06/04 10:25:35;;;;;;;;;;;;;;;28.12;32.49;102271.56;10274207;28;19914;-73
2023/06/04 10:30:35;;;;;;;;;;;;;;;28.41;33.42;102279.31;10273809;28;20473;-70
2023/06/04 10:35:36;;;;;;;;;;;;;;;27.83;30.39;102282.50;10292043;28;20344;-70
2023/06/04 10:40:36;;;;;;;;;;;;;;;27.18;32.07;102275.78;10274063;28;19972;-72
2023/06/04 10:45:36;;;;;;;;;;;;;;;27.51;34.43;102277.22;10273519;28;19918;-72
2023/06/04 10:50:50;;;;;;;;;;;;;;;28.28;33.50;102277.94;10290847;28;20287;-73
2023/06/04 10:55:50;;;;;;;;;;;;;;;28.28;34.77;102275.16;10292574;28;19925;-73
2023/06/04 11:00:50;;;;;;;;;;;;;;;28.30;30.64;102267.31;10276231;28;19996;-74
2023/06/04 11:05:50;;;;;;;;;;;;;;;27.74;32.23;102284.16;10294122;28;19996;-74
2023/06/04 11:10:51;;;;;;;;;;;;;;;27.64;33.05;102285.00;10298695;28;19922;-74
2023/06/04 11:15:51;;;;;;;;;;;;;;;28.45;30.76;102274.81;10280311;28;19914;-74
2023/06/04 11:20:58;;;;;;;;;;;;;;;28.55;30.87;102280.34;10297460;28;20364;-73
2023/06/04 11:25:58;;;;;;;;;;;;;;;28.92;30.89;102268.72;10298532;28;20404;-73
2023/06/04 11:31:02;;;;;;;;;;;;;;;28.60;29.13;102271.16;10280153;28;20004;-73
2023/06/04 11:36:03;;;;;;;;;;;;;;;28.29;33.34;102268.44;10281908;28;20254;-73
2023/06/04 11:41:05;;;;;;;;;;;;;;;29.04;31.89;102250.84;10279509;28;20013;-73
2023/06/04 11:46:05;;;;;;;;;;;;;;;28.80;31.66;102248.72;10278872;28;19940;-74
2023/06/04 11:51:09;;;;;;;;;;;;;;;28.72;30.17;102247.38;10295249;28;19925;-73
2023/06/04 11:56:11;;;;;;;;;;;;;;;29.04;29.82;102239.69;10297400;28;19969;-73
2023/06/04 12:01:11;;;;;;;;;;;;;;;29.38;31.40;102251.66;10296279;28;20370;-74
2023/06/04 12:06:15;;;;;;;;;;;;;;;29.16;30.48;102235.41;10278724;28;19965;-74
2023/06/04 12:11:32;;;;;;;;;;;;;;;29.53;31.56;102233.13;10295867;28;20008;-73
2023/06/04 12:16:33;;;;;;;;;;;;;;;29.11;28.22;102243.81;10296129;28;19918;-73
2023/06/04 12:21:33;;;;;;;;;;;;;;;29.25;30.61;102231.97;10278164;28;19937;-73
2023/06/04 12:26:37;;;;;;;;;;;;;;;28.83;29.69;102236.16;10278574;28;19949;-74
2023/06/04 12:31:38;;;;;;;;;;;;;;;29.24;29.00;102236.72;10294554;28;19998;-74
2023/06/04 12:36:38;;;;;;;;;;;;;;;28.82;30.35;102229.75;10277715;28;20234;-75
2023/06/04 12:41:38;;;;;;;;;;;;;;;29.26;29.94;102226.13;10295247;28;20380;-75
2023/06/04 12:46:38;;;;;;;;;;;;;;;29.59;30.78;102234.75;10278717;28;20349;-75
2023/06/04 12:51:39;;;;;;;;;;;;;;;29.47;29.95;102228.72;10276949;28;20369;-76
2023/06/04 12:56:40;;;;;;;;;;;;;;;29.40;29.74;102229.06;10294537;28;20373;-74
2023/06/04 13:01:40;;;;;;;;;;;;;;;29.40;29.56;102227.09;10298138;28;19914;-74
2023/06/04 13:06:41;;;;;;;;;;;;;;;29.43;30.78;102223.72;10296072;28;20252;-74
2023/06/04 13:11:42;;;;;;;;;;;;;;;29.33;32.75;102234.16;10278465;28;19985;-75
2023/06/04 13:16:42;;;;;;;;;;;;;;;28.98;32.34;102220.16;10276133;28;20357;-74
2023/06/04 13:21:42;;;;;;;;;;;;;;;28.92;34.54;102221.31;10293548;28;19924;-71
2023/06/04 13:26:43;;;;;;;;;;;;;;;28.76;34.83;102221.72;10294120;28;19941;-73
2023/06/04 13:31:43;;;;;;;;;;;;;;;29.12;35.54;102227.91;10293521;28;19957;-71
2023/06/04 13:37:15;;;;;;;;;;;;;;;28.97;35.71;102229.66;10476035;27;2018029;-74
2023/06/04 13:42:15;;;;;;;;;;;;;;;28.65;36.17;102234.88;10603458;28;20274;-73
2023/06/04 13:47:17;;;;;;;;;;;;;;;28.60;36.81;102237.69;10592544;28;20298;-72
2023/06/04 13:52:17;;;;;;;;;;;;;;;28.49;34.75;102215.47;10610704;28;19927;-73
2023/06/04 13:57:18;;;;;;;;;;;;;;;28.43;36.43;102219.41;10609477;28;20029;-74
2023/06/04 14:02:18;;;;;;;;;;;;;;;27.81;36.44;102220.69;10599209;28;19920;-74
2023/06/04 14:07:18;;;;;;;;;;;;;;;27.54;37.18;102212.66;10567737;28;20020;-73
2023/06/04 14:12:19;;;;;;;;;;;;;;;27.38;37.73;102222.09;10603495;28;19916;-71
2023/06/04 14:17:20;;;;;;;;;;;;;;;27.21;37.81;102214.06;10609871;28;19943;-71
2023/06/04 14:22:20;;;;;;;;;;;;;;;26.95;37.75;102214.00;10609175;28;20362;-71
2023/06/04 14:27:20;;;;;;;;;;;;;;;27.00;38.20;102205.69;10608270;28;19927;-74
2023/06/04 14:32:21;;;;;;;;;;;;;;;26.72;38.68;102206.19;10608174;27;19943;-74
2023/06/04 14:37:21;;;;;;;;;;;;;;;26.75;38.25;102209.25;10609151;27;20454;-72
2023/06/04 14:42:21;;;;;;;;;;;;;;;26.18;38.04;102213.75;10607312;28;20014;-73
2023/06/04 14:47:25;;;;;;;;;;;;;;;25.71;38.76;102210.97;10586743;28;19923;-71
2023/06/04 14:52:25;;;;;;;;;;;;;;;25.68;39.14;102200.41;10579566;28;19916;-72
2023/06/04 14:57:25;;;;;;;;;;;;;;;25.60;39.37;102198.97;10579723;28;19920;-71
2023/06/04 15:02:27;;;;;;;;;;;;;;;25.58;39.89;102192.03;10580818;28;20370;-72
2023/06/04 15:07:27;;;;;;;;;;;;;;;25.37;40.09;102191.91;10562118;28;19920;-71
2023/06/04 15:12:27;;;;;;;;;;;;;;;24.83;40.29;102181.69;10578519;28;20378;-71
2023/06/04 15:17:27;;;;;;;;;;;;;;;24.56;40.49;102189.16;10579474;28;20008;-71
2023/06/04 15:22:28;;;;;;;;;;;;;;;24.67;40.68;102185.41;10579834;28;19972;-72
2023/06/04 15:27:28;;;;;;;;;;;;;;;24.46;41.06;102187.13;10577865;28;20420;-71
2023/06/04 15:32:28;;;;;;;;;;;;;;;24.11;41.57;102191.09;10577499;28;20350;-72
2023/06/04 15:37:28;;;;;;;;;;;;;;;23.51;42.17;102199.31;10578168;28;19942;-71
2023/06/04 15:42:29;;;;;;;;;;;;;;;23.49;42.41;102191.31;10576596;28;19919;-71
2023/06/04 15:47:29;;;;;;;;;;;;;;;23.19;42.92;102188.88;10576741;28;20045;-71
2023/06/04 15:52:29;;;;;;;;;;;;;;;23.26;42.76;102194.22;10578318;28;19928;-71
2023/06/04 15:57:30;;;;;;;;;;;;;;;23.21;42.49;102190.31;10577474;28;19931;-71
2023/06/04 16:02:30;;;;;;;;;;;;;;;23.09;42.91;102192.28;10576502;28;19920;-72
2023/06/04 16:07:30;;;;;;;;;;;;;;;22.77;43.94;102183.69;10577901;28;19924;-72
2023/06/04 16:12:30;;;;;;;;;;;;;;;22.75;43.32;102183.13;10575918;28;19965;-71
2023/06/04 16:17:31;;;;;;;;;;;;;;;22.66;44.21;102174.38;10577951;28;20362;-72
2023/06/04 16:22:31;;;;;;;;;;;;;;;22.17;44.77;102162.09;10558841;28;20041;-71
2023/06/04 16:27:32;;;;;;;;;;;;;;;21.52;45.63;102171.41;10576692;28;20302;-71
2023/06/04 16:32:33;;;;;;;;;;;;;;;21.24;45.57;102167.38;10576387;28;19963;-71
2023/06/04 16:37:33;;;;;;;;;;;;;;;20.83;46.30;102160.84;10577227;28;20049;-72
2023/06/04 16:42:33;;;;;;;;;;;;;;;20.51;48.62;102160.25;10575795;28;20240;-71
2023/06/04 16:47:34;;;;;;;;;;;;;;;20.30;48.07;102163.50;10575595;28;19995;-71
2023/06/04 16:52:35;;;;;;;;;;;;;;;20.00;50.89;102164.28;10574517;28;20344;-71
2023/06/04 16:57:35;;;;;;;;;;;;;;;19.86;51.34;102162.75;10573992;28;19973;-71
2023/06/04 17:02:36;;;;;;;;;;;;;;;19.83;49.37;102164.06;10575856;28;19920;-71
2023/06/04 17:07:36;;;;;;;;;;;;;;;19.73;50.73;102169.25;10575078;28;19970;-71
2023/06/04 17:12:36;;;;;;;;;;;;;;;19.60;50.83;102166.59;10574729;28;19980;-71
2023/06/04 17:17:37;;;;;;;;;;;;;;;19.33;57.32;102174.25;10574702;28;20406;-71
2023/06/04 17:22:37;;;;;;;;;;;;;;;19.01;60.77;102174.28;10575399;28;19956;-71
2023/06/04 17:27:38;;;;;;;;;;;;;;;19.00;55.99;102169.88;10575257;28;19916;-71
2023/06/04 17:32:38;;;;;;;;;;;;;;;18.95;55.88;102172.44;10574262;28;19930;-71
2023/06/04 17:37:38;;;;;;;;;;;;;;;18.73;58.77;102175.56;10575432;28;19931;-71
2023/06/04 17:42:40;;;;;;;;;;;;;;;18.54;59.14;102184.72;10573099;28;19920;-71
2023/06/04 17:47:41;;;;;;;;;;;;;;;18.46;57.00;102184.97;10573102;28;19946;-71
2023/06/04 17:52:41;;;;;;;;;;;;;;;18.26;62.51;102191.38;10574240;28;20084;-71
2023/06/04 17:57:41;;;;;;;;;;;;;;;18.18;62.43;102183.38;10556343;28;19933;-71
2023/06/04 18:02:41;;;;;;;;;;;;;;;18.05;64.97;102187.00;10555329;28;19919;-71
2023/06/04 18:07:42;;;;;;;;;;;;;;;17.95;64.99;102196.75;10572199;28;19981;-71
2023/06/04 18:12:45;;;;;;;;;;;;;;;17.78;66.84;102190.91;10573137;28;19916;-71
2023/06/04 18:17:45;;;;;;;;;;;;;;;17.70;66.42;102194.66;10555350;28;19916;-71
2023/06/04 18:22:46;;;;;;;;;;;;;;;17.64;66.33;102198.25;10561136;28;19969;-71
2023/06/04 18:27:46;;;;;;;;;;;;;;;17.47;69.07;102200.59;10580181;28;19984;-71
2023/06/04 18:32:46;;;;;;;;;;;;;;;17.34;63.40;102198.69;10581699;28;19920;-71
2023/06/04 18:37:47;;;;;;;;;;;;;;;17.23;64.28;102202.09;10563400;28;19979;-71
2023/06/04 18:42:47;;;;;;;;;;;;;;;17.06;67.80;102198.06;10581122;28;20323;-71
2023/06/04 18:47:48;;;;;;;;;;;;;;;16.87;71.49;102196.97;10581008;28;20286;-71
2023/06/04 18:52:48;;;;;;;;;;;;;;;16.73;67.23;102204.28;10579600;28;20396;-71
2023/06/04 18:57:48;;;;;;;;;;;;;;;16.58;68.30;102209.06;10580462;28;20018;-71
2023/06/04 19:02:49;;;;;;;;;;;;;;;16.40;65.61;102205.03;10580772;28;20357;-71
2023/06/04 19:07:51;;;;;;;;;;;;;;;16.29;68.88;102211.06;10578883;28;19915;-71
2023/06/04 19:12:51;;;;;;;;;;;;;;;16.14;68.44;102207.63;10580332;28;20027;-71
2023/06/04 19:17:52;;;;;;;;;;;;;;;16.00;69.21;102206.72;10580223;28;19924;-71
2023/06/04 19:22:52;;;;;;;;;;;;;;;15.87;69.93;102209.38;10579921;28;19920;-71
2023/06/04 19:27:53;;;;;;;;;;;;;;;15.78;71.97;102223.19;10561381;28;19924;-71
2023/06/04 19:32:54;;;;;;;;;;;;;;;15.72;72.69;102232.19;10578263;28;19919;-71
2023/06/04 19:37:55;;;;;;;;;;;;;;;15.63;73.30;102235.22;10577670;28;20237;-71
2023/06/04 19:42:57;;;;;;;;;;;;;;;15.51;70.85;102237.66;10577856;28;20344;-71
2023/06/04 19:47:58;;;;;;;;;;;;;;;15.35;76.21;102247.81;10577765;28;19916;-71
2023/06/04 19:52:58;;;;;;;;;;;;;;;15.24;81.17;102255.69;10560573;28;19927;-71
2023/06/04 19:57:59;;;;;;;;;;;;;;;15.00;84.80;102246.84;10577403;28;19947;-71
2023/06/04 20:03:00;;;;;;;;;;;;;;;14.86;84.29;102261.38;10576676;28;19920;-71
2023/06/04 20:08:02;;;;;;;;;;;;;;;14.78;80.67;102266.97;10559564;28;20400;-71
2023/06/04 20:13:02;;;;;;;;;;;;;;;14.62;84.28;102274.31;10558736;28;19923;-71
2023/06/04 20:18:02;;;;;;;;;;;;;;;14.54;83.04;102276.28;10578482;28;20002;-71
2023/06/04 20:23:03;;;;;;;;;;;;;;;14.45;80.66;102286.41;10561682;28;19926;-71
2023/06/04 20:28:03;;;;;;;;;;;;;;;14.30;82.14;102291.06;10576936;28;20290;-71
2023/06/04 20:33:03;;;;;;;;;;;;;;;14.15;82.26;102297.34;10575291;28;20102;-71
2023/06/04 20:38:05;;;;;;;;;;;;;;;14.01;84.36;102300.03;10558703;28;20027;-73
2023/06/04 20:43:05;;;;;;;;;;;;;;;13.92;83.34;102291.97;10558621;28;19930;-71
2023/06/04 20:48:05;;;;;;;;;;;;;;;13.82;83.66;102298.72;10576825;28;20336;-71
2023/06/04 20:53:05;;;;;;;;;;;;;;;13.63;88.97;102300.91;10575118;28;19939;-71
2023/06/04 20:58:06;;;;;;;;;;;;;;;13.52;92.45;102312.22;10559222;28;20273;-71
2023/06/04 21:03:06;;;;;;;;;;;;;;;13.42;92.40;102308.91;10574968;28;20394;-71
2023/06/04 21:08:06;;;;;;;;;;;;;;;13.33;94.10;102318.16;10577988;28;19932;-71
2023/06/04 21:13:07;;;;;;;;;;;;;;;13.22;92.74;102314.81;10576359;28;20438;-71
2023/06/04 21:18:07;;;;;;;;;;;;;;;13.17;90.47;102311.75;10559530;28;19920;-72
2023/06/04 21:23:07;;;;;;;;;;;;;;;13.14;88.15;102317.56;10577236;28;19923;-71
2023/06/04 21:28:07;;;;;;;;;;;;;;;13.01;94.78;102328.19;10576570;28;19968;-70
2023/06/04 21:33:08;;;;;;;;;;;;;;;12.89;97.22;102322.31;10577734;28;19963;-71
2023/06/04 21:38:08;;;;;;;;;;;;;;;12.83;96.48;102343.91;10576995;28;19928;-71
2023/06/04 21:43:08;;;;;;;;;;;;;;;12.73;100.00;102334.13;10574425;28;19916;-70
2023/06/04 21:48:09;;;;;;;;;;;;;;;12.74;96.31;102333.09;10576518;28;19919;-71
2023/06/04 21:53:09;;;;;;;;;;;;;;;12.69;94.72;102326.47;10574915;28;19994;-71
2023/06/04 21:58:09;;;;;;;;;;;;;;;12.61;97.32;102327.38;10580738;28;20281;-71
2023/06/04 22:03:10;;;;;;;;;;;;;;;12.54;97.73;102327.25;10583397;28;19924;-71
2023/06/04 22:08:12;;;;;;;;;;;;;;;12.47;99.61;102328.09;10583421;28;19967;-71
2023/06/04 22:13:12;;;;;;;;;;;;;;;12.43;100.00;102330.31;10582298;28;19920;-71
2023/06/04 22:18:13;;;;;;;;;;;;;;;12.33;100.00;102332.38;10583614;28;19939;-71
2023/06/04 22:23:14;;;;;;;;;;;;;;;12.33;99.97;102327.81;10583162;28;19920;-71
2023/06/04 22:28:14;;;;;;;;;;;;;;;12.28;100.00;102332.94;10581163;28;20463;-71
2023/06/04 22:33:15;;;;;;;;;;;;;;;12.25;98.32;102336.00;10582353;28;19924;-71
2023/06/04 22:38:15;;;;;;;;;;;;;;;12.20;100.00;102335.66;10581935;28;19968;-71
2023/06/04 22:43:15;;;;;;;;;;;;;;;12.16;98.34;102322.59;10580060;28;19924;-71
2023/06/04 22:48:15;;;;;;;;;;;;;;;12.05;100.00;102327.34;10580586;28;19924;-72
2023/06/04 22:53:17;;;;;;;;;;;;;;;12.01;100.00;102333.31;10580215;28;20335;-71
2023/06/04 22:58:17;;;;;;;;;;;;;;;11.94;100.00;102340.44;10581261;28;20289;-71
2023/06/04 23:03:17;;;;;;;;;;;;;;;11.93;100.00;102334.16;10579422;28;20072;-71
2023/06/04 23:08:18;;;;;;;;;;;;;;;11.89;100.00;102337.38;10579702;28;19916;-71
2023/06/04 23:13:18;;;;;;;;;;;;;;;11.88;100.00;102343.84;10580994;28;20328;-71
2023/06/04 23:18:18;;;;;;;;;;;;;;;11.82;100.00;102353.47;10580312;28;20306;-71
2023/06/04 23:23:18;;;;;;;;;;;;;;;11.75;100.00;102357.91;10578703;28;19920;-70
2023/06/04 23:28:19;;;;;;;;;;;;;;;11.72;100.00;102358.25;10579084;28;19935;-71
2023/06/04 23:33:19;;;;;;;;;;;;;;;11.66;100.00;102354.31;10580482;28;19958;-71
2023/06/04 23:38:21;;;;;;;;;;;;;;;11.63;100.00;102351.94;10581117;28;19915;-71
2023/06/04 23:43:21;;;;;;;;;;;;;;;11.55;100.00;102352.81;10561693;28;19975;-71
2023/06/04 23:48:21;;;;;;;;;;;;;;;11.56;100.00;102350.94;10580494;28;20066;-71
2023/06/04 23:53:22;;;;;;;;;;;;;;;11.52;100.00;102342.28;10582182;28;20298;-71
2023/06/04 23:58:23;;;;;;;;;;;;;;;11.47;100.00;102344.66;10578619;28;20437;-71
